22 de maio de 2022

Tempo Código Clima Temp. Visão Nuvens Vento METAR/SPECI
16:00
V
31 °C 10 km+ - 160°   160° 10 20 kt METAR AYPY 220600Z 16010G20KT 9999 FUHZ SCT030 31/25 Q1006
15:00
V
32 °C 10 km+ - 160°   160° 10 20 kt METAR AYPY 220500Z 16010G20KT 9999 HZ SCT030 32/25 Q1006
14:00
V
32 °C 10 km+ - 160°   160° 15 kt METAR AYPY 220400Z 16015KT 9999 HZ SCT030 32/25 Q1006=
13:00
V
32 °C 10 km+ - 160°   160° 15 kt METAR AYPY 220300Z 16015KT 9999 HZ SCT030 32/25 Q1007
12:00
V
32 °C 10 km+ - 180°   180° 13 kt METAR AYPY 220200Z 18013KT 9999 HZ SCT030 32/24 Q1008
11:00
V
32 °C 10 km+ - 150°   150° 10 kt METAR AYPY 220100Z 15010KT 9999 HZ SCT030 32/24 Q1009
10:00
V
31 °C 10 km+ - 350°   350° 5 kt METAR AYPY 220000Z 35005KT 9999 HZ SCT030 31/24 Q1009
09:00
V
30 °C 10 km+ - 350°   350° 5 kt METAR AYPY 212300Z 35005KT 9999 HZ FEW030 30/24 Q1010
08:00
V
28 °C 10 km+ - Var   Var 3 kt METAR AYPY 212200Z VRB03KT 9999 HZ FEW030 28/24 Q1009=
07:00
V
25 °C 10 km+ - Var   Var 3 kt METAR AYPY 212100Z VRB03KT 9999 HZ FEW040 25/24 Q1009
06:00
V
24 °C 10 km+ - Var   Var 2 kt METAR AYPY 212000Z VRB02KT 9999 FEW050 24/23 Q1008
05:00
V
24 °C 10 km+ - Var   Var 3 kt METAR AYPY 211900Z VRB03KT 9999 FEW050 24/23 Q1008
04:00
V
24 °C 10 km+ - Var   Var 3 kt METAR AYPY 211800Z VRB03KT 9999 SCT050 24/23 Q1008
03:00
V
24 °C 10 km+ - Var   Var 2 kt METAR AYPY 211700Z VRB02KT 9999 SCT050 24/24 Q1008
02:00
V
25 °C 10 km+ - Var   Var 2 kt METAR AYPY 211600Z VRB02KT 9999 SCT050 25/24 Q1008
01:00
V
25 °C 10 km+ - Var   Var 3 kt METAR AYPY 211500Z VRB03KT 9999 SCT050 25/24 Q1009
00:00
V
26 °C 10 km+ - 130°   130° 4 kt METAR AYPY 211400Z 13004KT 9999 SCT040 26/24 Q1009

21 de maio de 2022

Tempo Código Clima Temp. Visão Nuvens Vento METAR/SPECI
23:00
V
26 °C 10 km+ - 130°   130° 6 kt METAR AYPY 211300Z 13006KT 9999 SCT040 26/24 Q1009
22:00
V
27 °C 10 km+ - 140°   140° 13 kt METAR AYPY 211200Z 14013KT 9999 SCT040 27/24 Q1010
21:00
V
27 °C 10 km+ - 150°   150° 15 kt METAR AYPY 211100Z 15015KT 9999 SCT040 27/24 Q1010
20:00
V
28 °C 10 km+ - 150°   150° 15 kt METAR AYPY 211000Z 15015KT 9999 SCT040 28/25 Q1008
19:00
V
28 °C 10 km+ - 160°   160° 15 kt METAR AYPY 210900Z 16015KT 9999 SCT040 28/25 Q1008
18:00
V
28 °C 10 km+ - 160°   160° 10 20 kt METAR AYPY 210800Z 16010G20KT 9999 SCT040 28/24 Q1008
17:00
V
29 °C 10 km+ - 160°   160° 10 20 kt METAR AYPY 210700Z 16010G20KT 9999 SCT030 29/24 Q1007=
16:00
V
30 °C 10 km+ - 150°   150° 10 20 kt METAR AYPY 210600Z 15010G20KT 9999 HZ SCT030 30/25 Q1007
15:00
V
31 °C 10 km+ - 160°   160° 10 20 kt METAR AYPY 210500Z 16010G20KT 9999 HZ SCT025 31/25 Q1007=
14:00
V
32 °C 10 km+ - 170°   170° 15 kt METAR AYPY 210400Z 17015KT 9999 SCT030 32/24 Q1008
13:00
V
31 °C 10 km+ - 190°   190° 15 kt METAR AYPY 210300Z 19015KT 9999 SCT030 31/24 Q1008
12:00
V
32 °C 10 km+ - 190°   190° 13 kt METAR AYPY 210200Z 19013KT 9999 SCT035 32/24 Q1009
11:00
V
32 °C 10 km+ - 140°   140° 10 15 kt METAR AYPY 210100Z 14010G15KT 9999 SCT040 32/23 Q1010
10:00
V
31 °C 10 km+ - 160°   160° 5 10 kt METAR AYPY 210000Z 16005G10KT 9999 SCT080 31/23 Q1011
09:00
V
30 °C 10 km+ - 160°   160° 5 kt METAR AYPY 202300Z 16005KT 9999 FEW050 30/23 Q1011
08:00
V
28 °C 10 km+ - 280°   280° 3 kt METAR AYPY 202200Z 28003KT 9999 FEW030 28/23 Q1011
07:00
V
25 °C 10 km+ - Var   000° 0 kt METAR AYPY 202100Z 00000KT 9999 SCT050 25/24 Q1010
06:00
V
24 °C 10 km+ - Var   Var 3 kt METAR AYPY 202000Z VRB03KT 9999 SCT080 24/23 Q1010
05:00
V
24 °C 10 km+ - Var   Var 3 kt METAR AYPY 201900Z VRB03KT 9999 FEW080 24/23 Q1009
04:00
V
24 °C 10 km+ - Var   Var 3 kt METAR AYPY 201800Z VRB03KT 9999 FEW080 24/23 Q1009
03:00
V
24 °C 10 km+ - Var   Var 3 kt METAR AYPY 201700Z VRB03KT 9999 FEW060 24/23 Q1009
02:00
V
25 °C 10 km+ - Var   Var 3 kt METAR AYPY 201600Z VRB03KT 9999 SCT050 25/23 Q1010
01:00
V
25 °C 10 km+ - 150°   150° 5 kt METAR AYPY 201500Z 15005KT 9999 SCT060 25/23 Q1010
00:00
V
26 °C 10 km+ - 080°   080° 5 kt METAR AYPY 201400Z 08005KT 9999 FEW080 26/23 Q1010

20 de maio de 2022

Tempo Código Clima Temp. Visão Nuvens Vento METAR/SPECI
22:00
V
26 °C 10 km+ - 140°   140° 10 kt METAR AYPY 201200Z 14010KT 9999 FEW080 26/24 Q1011
21:00
V
26 °C 10 km+ - 140°   140° 15 kt METAR AYPY 201100Z 14015KT 9999 FEW050 26/24 Q1011
19:00
V
27 °C 10 km+ - 160°   160° 15 kt METAR AYPY 200900Z 16015KT 9999 FEW040 27/24 Q1010
18:00
V
28 °C 10 km+ - 150°   150° 10 20 kt METAR AYPY 200800Z 15010G20KT 9999 FEW030 28/24 Q1009
17:00
V
29 °C 10 km+ - 160°   160° 10 20 kt METAR AYPY 200700Z 16010G20KT 9999 FEW025 29/24 Q1009
16:00
V
30 °C 10 km+ - 160°   160° 10 20 kt METAR AYPY 200600Z 16010G20KT 9999 FEW025 30/23 Q1008
15:00
V
32 °C 10 km+ - 170°   170° 10 20 kt METAR AYPY 200500Z 17010G20KT 9999 SCT040 32/24 Q1009
Dados mais antigos

Baixe nosso aplicativo

Fácil acesso a todas as condições meteorológicas da aviação no seu celular e no seu tablet.
Com muitos recursos não disponíveis no site, como suporte offline e uma lista pessoal de aeroportos.

Nós e terceiros acompanhamos seu comportamento na internet em nosso site com cookies. Se você continuar, nós assumimos que você concorda com nossa política de cookies. Saiba mais